createdAt,value
2023-09-04T05:19:10.025Z,85.36
2023-09-04T05:21:50.174Z,85.51
2023-09-04T05:24:25.488Z,78.94
2023-09-04T05:26:53.816Z,77.73
2023-09-04T05:29:22.291Z,72.84
2023-09-04T05:31:52.574Z,71.70
2023-09-04T05:34:22.558Z,69.51
2023-09-04T05:36:55.456Z,69.18
2023-09-04T05:39:24.796Z,70.58
2023-09-04T05:42:04.623Z,71.54
2023-09-04T05:44:39.321Z,69.38
2023-09-04T05:47:11.691Z,68.07
2023-09-04T05:49:47.221Z,66.58
2023-09-04T05:52:25.411Z,66.81
2023-09-04T05:54:53.630Z,66.60
2023-09-04T05:57:21.850Z,64.93
2023-09-04T05:59:50.123Z,63.77
2023-09-04T06:02:18.430Z,60.74
2023-09-04T06:04:46.686Z,56.20
2023-09-04T06:07:16.685Z,51.74
2023-09-04T06:09:46.793Z,50.63
2023-09-04T06:12:17.501Z,49.63
2023-09-04T06:14:45.632Z,49.24
2023-09-04T06:17:13.957Z,47.59
2023-09-04T06:19:42.386Z,46.78
2023-09-04T06:22:10.709Z,46.11
2023-09-04T06:24:38.992Z,44.29
2023-09-04T06:27:07.294Z,45.31
2023-09-04T06:29:36.332Z,47.64
2023-09-04T06:32:05.326Z,49.35
2023-09-04T06:34:33.511Z,49.99
2023-09-04T06:37:01.915Z,51.40
2023-09-04T06:39:30.294Z,52.43
2023-09-04T06:41:58.523Z,52.71
2023-09-04T06:44:30.469Z,51.43
2023-09-04T06:47:00.044Z,51.92
2023-09-04T06:49:30.358Z,52.27
2023-09-04T06:51:59.016Z,52.47
2023-09-04T06:54:28.110Z,52.88
2023-09-04T06:56:56.872Z,53.75
2023-09-04T06:59:25.125Z,54.69
2023-09-04T07:01:53.343Z,56.02
2023-09-04T07:04:21.655Z,57.10
2023-09-04T07:06:49.789Z,57.72
2023-09-04T07:09:17.957Z,57.22
2023-09-04T07:11:46.645Z,57.65
2023-09-04T07:14:14.724Z,56.27
2023-09-04T07:16:53.722Z,55.68
2023-09-04T07:19:30.917Z,55.84
2023-09-04T07:21:59.287Z,56.07
2023-09-04T07:24:27.798Z,56.78
2023-09-04T07:26:56.388Z,55.63
2023-09-04T07:29:24.466Z,55.80
2023-09-04T07:31:55.320Z,56.13
2023-09-04T07:34:24.436Z,55.04
2023-09-04T07:36:53.556Z,50.63
2023-09-04T07:39:21.898Z,49.80
2023-09-04T07:41:50.168Z,48.17
2023-09-04T07:44:18.405Z,45.75
2023-09-04T07:46:46.614Z,43.33
2023-09-04T07:49:14.861Z,44.69
2023-09-04T07:51:44.005Z,44.80
2023-09-04T07:54:12.737Z,45.48
2023-09-04T07:56:42.704Z,46.71
2023-09-04T07:59:11.702Z,47.04
2023-09-04T08:01:40.207Z,47.55
2023-09-04T08:04:09.028Z,48.73
2023-09-04T08:06:37.626Z,48.71
2023-09-04T08:09:06.315Z,49.29
2023-09-04T08:11:36.396Z,49.91
2023-09-04T08:14:04.923Z,49.38
2023-09-04T08:16:33.275Z,48.96
2023-09-04T08:19:01.522Z,48.41
2023-09-04T08:21:29.766Z,47.77
2023-09-04T08:23:58.096Z,45.94
2023-09-04T08:26:26.603Z,45.81
2023-09-04T08:28:56.241Z,47.26
2023-09-04T08:31:24.657Z,46.51
2023-09-04T08:33:53.159Z,45.06
2023-09-04T08:36:21.611Z,42.73
2023-09-04T08:38:49.775Z,42.07
2023-09-04T08:41:22.656Z,40.62
2023-09-04T08:43:51.247Z,41.34
2023-09-04T08:46:20.514Z,41.24
2023-09-04T08:48:53.340Z,40.62
2023-09-04T08:51:22.034Z,40.96
2023-09-04T08:53:51.562Z,41.11
2023-09-04T08:56:20.737Z,42.09
2023-09-04T08:58:49.238Z,42.02
2023-09-04T09:01:19.567Z,43.06
2023-09-04T09:03:48.975Z,43.54
2023-09-04T09:06:17.480Z,42.90
2023-09-04T09:08:48.065Z,43.64
2023-09-04T09:11:17.301Z,42.05
2023-09-04T09:13:46.272Z,42.11
2023-09-04T09:16:20.257Z,40.36
2023-09-04T09:18:50.415Z,40.99
2023-09-04T09:21:29.780Z,41.37
2023-09-04T09:24:19.150Z,39.48
2023-09-04T09:26:49.860Z,40.36
2023-09-04T09:29:19.580Z,39.79
2023-09-04T09:31:48.314Z,39.52
2023-09-04T09:34:20.183Z,39.40
2023-09-04T09:36:48.854Z,39.70
2023-09-04T09:39:17.356Z,39.45
2023-09-04T09:41:47.194Z,39.07
2023-09-04T09:44:15.520Z,38.38
2023-09-04T09:46:44.277Z,36.91
2023-09-04T09:49:12.857Z,35.76
2023-09-04T09:51:41.152Z,36.43
2023-09-04T09:54:10.853Z,36.29
2023-09-04T09:56:40.909Z,36.62
2023-09-04T09:59:09.972Z,36.20
2023-09-04T10:01:38.608Z,34.47
2023-09-04T10:04:08.420Z,33.18
2023-09-04T10:06:39.622Z,33.04
2023-09-04T10:09:10.795Z,32.70
2023-09-04T10:11:45.067Z,32.27
2023-09-04T10:14:17.455Z,32.30
2023-09-04T10:16:54.873Z,33.72
2023-09-04T10:19:29.762Z,34.09
2023-09-04T10:22:05.188Z,34.33
2023-09-04T10:24:51.068Z,33.53
2023-09-04T10:27:24.102Z,32.69
2023-09-04T10:29:58.212Z,31.83
2023-09-04T10:32:27.945Z,30.96
2023-09-04T10:34:56.848Z,31.64
2023-09-04T10:37:28.288Z,31.97
2023-09-04T10:39:59.185Z,31.79
2023-09-04T10:42:30.179Z,30.76
2023-09-04T10:44:59.429Z,30.89
2023-09-04T10:47:27.740Z,31.00
2023-09-04T10:49:56.192Z,30.44
2023-09-04T10:52:41.842Z,31.42
2023-09-04T10:55:14.695Z,32.20
2023-09-04T10:57:58.964Z,33.22
2023-09-04T11:00:31.242Z,35.03
2023-09-04T11:03:16.929Z,36.53
2023-09-04T11:06:07.381Z,38.23
2023-09-04T11:08:50.958Z,39.75
2023-09-04T11:11:27.631Z,41.18
2023-09-04T11:13:58.131Z,41.75
2023-09-04T11:16:27.544Z,42.22
2023-09-04T11:19:22.000Z,42.63
2023-09-04T11:21:50.919Z,41.55
2023-09-04T11:24:20.802Z,40.90
2023-09-04T11:26:49.350Z,41.03
2023-09-04T11:29:18.377Z,39.92
2023-09-04T11:31:55.451Z,40.38
2023-09-04T11:34:35.036Z,41.70
2023-09-04T11:37:03.359Z,41.82
2023-09-04T11:39:32.502Z,42.58
2023-09-04T11:42:03.751Z,43.48
2023-09-04T11:44:32.509Z,43.65
2023-09-04T11:47:00.941Z,43.30
2023-09-04T11:49:29.744Z,42.80
2023-09-04T11:51:58.024Z,43.33
2023-09-04T11:54:33.343Z,42.70
2023-09-04T11:57:01.658Z,43.52
2023-09-04T11:59:38.522Z,43.05
2023-09-04T12:02:08.946Z,42.45
2023-09-04T12:04:37.458Z,41.75
2023-09-04T12:07:07.854Z,43.24
2023-09-04T12:09:37.682Z,43.38
2023-09-04T12:12:06.459Z,43.32
2023-09-04T12:14:34.751Z,43.05
2023-09-04T12:17:11.966Z,44.72
2023-09-04T12:19:41.702Z,45.30
2023-09-04T12:22:17.221Z,45.36
2023-09-04T12:25:01.894Z,44.56
2023-09-04T12:27:30.656Z,44.78
2023-09-04T12:29:58.915Z,44.02
2023-09-04T12:32:27.644Z,44.68
2023-09-04T12:35:03.128Z,43.66
2023-09-04T12:37:35.820Z,42.02
2023-09-04T12:40:05.500Z,42.38
2023-09-04T12:42:34.242Z,41.88
2023-09-04T12:45:02.317Z,43.31
2023-09-04T12:47:30.516Z,43.02
2023-09-04T12:49:58.763Z,43.12
2023-09-04T12:52:27.680Z,43.54
2023-09-04T12:54:55.935Z,43.72
2023-09-04T12:57:24.215Z,43.89
2023-09-04T12:59:52.545Z,43.88
2023-09-04T13:02:22.700Z,44.48
2023-09-04T13:04:51.059Z,45.22
2023-09-04T13:07:19.332Z,45.34
2023-09-04T13:09:48.510Z,44.64
2023-09-04T13:12:17.641Z,44.94
2023-09-04T13:14:46.774Z,45.67
2023-09-04T13:17:15.049Z,46.18
2023-09-04T13:19:43.485Z,46.49
2023-09-04T13:22:11.570Z,46.31
2023-09-04T13:24:40.000Z,46.82
2023-09-04T13:27:10.357Z,46.95
2023-09-04T13:29:38.495Z,47.37
2023-09-04T13:32:07.027Z,48.09
2023-09-04T13:34:35.309Z,48.27
2023-09-04T13:37:03.721Z,48.53
2023-09-04T13:39:32.077Z,48.73
2023-09-04T13:42:01.077Z,48.97
2023-09-04T13:44:29.209Z,48.74
2023-09-04T13:46:57.701Z,48.83
2023-09-04T13:49:25.904Z,48.41
2023-09-04T13:51:54.196Z,48.58
2023-09-04T13:54:22.424Z,47.97
2023-09-04T13:56:51.515Z,47.72
2023-09-04T13:59:22.989Z,47.98
2023-09-04T14:01:51.475Z,47.91
2023-09-04T14:04:19.797Z,48.65
2023-09-04T14:06:48.231Z,49.27
2023-09-04T14:09:16.525Z,49.39
2023-09-04T14:11:45.161Z,49.64
2023-09-04T14:14:13.414Z,49.81
2023-09-04T14:16:41.947Z,50.03
2023-09-04T14:19:11.415Z,50.26
2023-09-04T14:21:40.306Z,50.50
2023-09-04T14:24:08.742Z,51.65
2023-09-04T14:26:36.859Z,51.88
2023-09-04T14:29:05.187Z,52.03
2023-09-04T14:31:33.474Z,51.77
2023-09-04T14:34:04.473Z,51.80
2023-09-04T14:36:33.151Z,51.44
2023-09-04T14:39:01.244Z,50.74
2023-09-04T14:41:33.471Z,50.96
2023-09-04T14:44:02.123Z,51.35
2023-09-04T14:46:31.900Z,50.97
2023-09-04T14:49:01.456Z,51.71
2023-09-04T14:51:29.934Z,51.63
2023-09-04T14:53:58.782Z,51.06
2023-09-04T14:56:27.334Z,50.93
2023-09-04T14:58:56.366Z,50.76
2023-09-04T15:01:26.945Z,50.81
2023-09-04T15:03:55.078Z,50.45
2023-09-04T15:06:23.691Z,51.29
2023-09-04T15:08:52.174Z,52.13
2023-09-04T15:11:20.506Z,52.41
2023-09-04T15:13:49.037Z,51.93
2023-09-04T15:16:17.858Z,50.81
2023-09-04T15:18:46.348Z,50.46
2023-09-04T15:21:17.674Z,51.00
2023-09-04T15:23:46.027Z,51.33
2023-09-04T15:26:14.169Z,51.55
2023-09-04T15:28:42.687Z,51.36
2023-09-04T15:31:10.890Z,51.61
2023-09-04T15:33:39.347Z,51.95
2023-09-04T15:36:07.554Z,51.59
2023-09-04T15:38:37.505Z,52.15
2023-09-04T15:41:06.302Z,52.12
2023-09-04T15:43:34.509Z,52.18
2023-09-04T15:46:03.361Z,53.12
2023-09-04T15:48:32.309Z,53.09
2023-09-04T15:51:00.672Z,52.61
2023-09-04T15:53:31.928Z,52.09
2023-09-04T15:56:00.960Z,52.13
2023-09-04T15:58:29.474Z,52.22
2023-09-04T16:00:57.846Z,53.05
2023-09-04T16:03:26.193Z,52.84
2023-09-04T16:05:54.697Z,52.97
2023-09-04T16:08:23.438Z,53.24
2023-09-04T16:10:52.183Z,53.26
2023-09-04T16:13:23.650Z,53.38
2023-09-04T16:15:53.948Z,53.14
2023-09-04T16:18:22.868Z,53.58
2023-09-04T16:20:52.276Z,53.18
2023-09-04T16:23:21.501Z,52.88
2023-09-04T16:25:58.518Z,53.20
2023-09-04T16:28:27.393Z,53.22
2023-09-04T16:30:57.086Z,52.98
2023-09-04T16:33:28.238Z,52.68
2023-09-04T16:35:56.656Z,52.70
2023-09-04T16:38:25.163Z,52.72
2023-09-04T16:40:55.223Z,52.87
2023-09-04T16:43:23.337Z,53.38
2023-09-04T16:45:51.811Z,53.38
2023-09-04T16:48:20.254Z,53.41
2023-09-04T16:50:48.607Z,53.33
2023-09-04T16:53:16.799Z,53.45
2023-09-04T16:55:45.181Z,53.49
2023-09-04T16:58:13.356Z,53.51
2023-09-04T17:00:41.615Z,53.64
2023-09-04T17:03:10.481Z,53.87
2023-09-04T17:05:38.898Z,54.12
2023-09-04T17:08:08.568Z,54.13
2023-09-04T17:10:36.994Z,54.83
2023-09-04T17:13:05.202Z,54.44
2023-09-04T17:15:33.498Z,54.58
2023-09-04T17:18:03.709Z,55.46
2023-09-04T17:20:33.916Z,55.13
2023-09-04T17:23:02.169Z,54.99
2023-09-04T17:25:30.651Z,55.21
2023-09-04T17:27:58.847Z,55.76
2023-09-04T17:30:27.080Z,56.36
2023-09-04T17:32:56.302Z,57.15
2023-09-04T17:35:24.708Z,56.66
2023-09-04T17:37:53.196Z,56.61
2023-09-04T17:40:21.487Z,56.85
2023-09-04T17:42:50.356Z,56.95
2023-09-04T17:45:18.569Z,57.52
2023-09-04T17:47:46.864Z,57.90
2023-09-04T17:50:15.485Z,58.22
2023-09-04T17:52:43.852Z,58.66
2023-09-04T17:55:12.115Z,59.34
2023-09-04T17:57:40.674Z,59.31
2023-09-04T18:00:09.745Z,59.92
2023-09-04T18:02:43.886Z,60.35
2023-09-04T18:05:13.063Z,60.53
2023-09-04T18:07:41.304Z,59.98
2023-09-04T18:10:10.817Z,60.16
2023-09-04T18:12:39.145Z,60.49
2023-09-04T18:15:07.754Z,60.55
2023-09-04T18:17:35.960Z,60.73
2023-09-04T18:20:04.639Z,60.66
2023-09-04T18:22:32.836Z,60.80
2023-09-04T18:25:01.958Z,60.60
2023-09-04T18:27:30.295Z,60.35
2023-09-04T18:29:58.540Z,60.56
2023-09-04T18:32:28.578Z,60.93
2023-09-04T18:34:56.772Z,61.12
2023-09-04T18:37:26.996Z,61.44
2023-09-04T18:39:55.310Z,61.34
2023-09-04T18:42:23.885Z,61.28
2023-09-04T18:44:52.233Z,61.44
2023-09-04T18:47:20.430Z,61.78
2023-09-04T18:49:50.526Z,61.20
2023-09-04T18:52:21.024Z,61.07
2023-09-04T18:54:49.585Z,61.35
2023-09-04T18:57:18.754Z,61.56
2023-09-04T18:59:46.970Z,61.66
2023-09-04T19:02:16.458Z,62.17
2023-09-04T19:04:44.972Z,62.89
2023-09-04T19:07:13.164Z,63.33
2023-09-04T19:09:41.521Z,63.88
2023-09-04T19:12:09.838Z,64.90
2023-09-04T19:14:38.834Z,64.71
2023-09-04T19:17:07.161Z,65.55
2023-09-04T19:19:35.348Z,66.95
2023-09-04T19:22:03.764Z,67.36
2023-09-04T19:24:32.180Z,67.81
2023-09-04T19:27:00.454Z,67.52
2023-09-04T19:29:29.231Z,67.45
2023-09-04T19:31:57.474Z,67.41
2023-09-04T19:34:25.706Z,68.29
2023-09-04T19:36:53.897Z,68.70
2023-09-04T19:39:22.225Z,69.06
2023-09-04T19:41:50.412Z,69.87
2023-09-04T19:44:18.647Z,70.35
2023-09-04T19:46:46.828Z,70.33
2023-09-04T19:49:15.233Z,70.52
2023-09-04T19:51:43.512Z,70.68
2023-09-04T19:54:11.977Z,71.16
2023-09-04T19:56:40.349Z,71.69
2023-09-04T19:59:08.379Z,71.82
2023-09-04T20:01:36.777Z,72.44
2023-09-04T20:04:05.479Z,72.82
2023-09-04T20:06:33.606Z,73.33
2023-09-04T20:09:02.216Z,73.45
2023-09-04T20:11:32.679Z,73.30
2023-09-04T20:14:00.882Z,72.91
2023-09-04T20:16:31.410Z,73.14
2023-09-04T20:19:00.696Z,73.57
2023-09-04T20:21:28.896Z,73.38
2023-09-04T20:24:00.404Z,73.80
2023-09-04T20:26:39.248Z,73.67
2023-09-04T20:29:16.760Z,74.09
2023-09-04T20:31:45.160Z,74.56
2023-09-04T20:34:14.444Z,74.59
2023-09-04T20:36:42.984Z,74.85
2023-09-04T20:39:11.274Z,74.85
2023-09-04T20:41:39.669Z,74.98
2023-09-04T20:44:07.915Z,75.09
2023-09-04T20:46:37.381Z,75.23
2023-09-04T20:49:05.732Z,75.35
2023-09-04T20:51:35.646Z,75.46
2023-09-04T20:54:04.111Z,75.54
2023-09-04T20:56:32.274Z,75.63
2023-09-04T20:59:00.427Z,76.19
2023-09-04T21:01:28.747Z,76.27
2023-09-04T21:03:57.754Z,75.77
2023-09-04T21:06:25.888Z,75.85
2023-09-04T21:08:54.031Z,75.97
2023-09-04T21:11:22.231Z,76.85
2023-09-04T21:14:08.843Z,76.91
2023-09-04T21:16:55.721Z,76.81
2023-09-04T21:19:42.732Z,76.72
2023-09-04T21:22:29.511Z,77.12
2023-09-04T21:25:16.282Z,77.41
2023-09-04T21:28:03.415Z,77.86
2023-09-04T21:30:50.809Z,78.09
2023-09-04T21:33:37.802Z,76.79
2023-09-04T21:36:24.864Z,74.57
2023-09-04T21:39:11.610Z,73.37
2023-09-04T21:41:58.541Z,71.08
2023-09-04T21:44:45.240Z,70.22
2023-09-04T21:47:31.889Z,69.92
2023-09-04T21:50:18.434Z,69.13
2023-09-04T21:53:05.333Z,68.80
2023-09-04T21:55:52.014Z,68.80
2023-09-04T21:58:39.332Z,69.05
2023-09-04T22:01:26.041Z,69.27
2023-09-04T22:04:12.950Z,69.33
2023-09-04T22:06:59.701Z,69.39
2023-09-04T22:09:46.573Z,69.36
2023-09-04T22:12:33.643Z,69.55
2023-09-04T22:15:20.384Z,69.69
2023-09-04T22:18:11.673Z,69.89
2023-09-04T22:20:58.417Z,70.10
2023-09-04T22:23:45.444Z,70.31
2023-09-04T22:26:32.557Z,70.52
2023-09-04T22:29:19.218Z,70.69
2023-09-04T22:32:05.921Z,70.80
2023-09-04T22:34:52.702Z,71.13
2023-09-04T22:37:39.757Z,71.61
2023-09-04T22:40:28.838Z,71.67
2023-09-04T22:43:15.915Z,71.76
2023-09-04T22:46:03.022Z,71.78
2023-09-04T22:48:50.031Z,72.02
2023-09-04T22:51:36.873Z,72.20
2023-09-04T22:54:24.904Z,72.42
2023-09-04T22:57:12.015Z,72.50
2023-09-04T22:59:58.917Z,73.11
2023-09-04T23:02:46.215Z,73.68
2023-09-04T23:05:33.272Z,74.28
2023-09-04T23:08:20.435Z,74.33
2023-09-04T23:11:07.242Z,74.08
2023-09-04T23:13:53.895Z,73.23
2023-09-04T23:16:40.589Z,73.11
2023-09-04T23:19:28.352Z,73.28
2023-09-04T23:21:59.320Z,73.24
2023-09-04T23:24:28.321Z,73.04
2023-09-04T23:26:56.603Z,73.12
2023-09-04T23:29:25.839Z,72.75
2023-09-04T23:32:01.200Z,72.91
2023-09-04T23:34:35.013Z,72.70
2023-09-04T23:37:14.184Z,72.75
2023-09-04T23:40:02.693Z,72.83
2023-09-04T23:43:05.879Z,72.42
2023-09-04T23:45:34.289Z,72.07
2023-09-04T23:48:02.699Z,71.99
2023-09-04T23:50:32.189Z,72.08
2023-09-04T23:53:00.406Z,72.46
2023-09-04T23:55:28.654Z,72.15
2023-09-04T23:57:56.953Z,71.84
